Time;durP1;ratioP1;P1;durP2;ratioP2;P2;SDS_P1;SDS_P2;PMS_P1;PMS_P2;Temp;Humidity;BMP_temperature;BMP_pressure;BME280_temperature;BME280_humidity;BME280_pressure;Samples;Min_cycle;Max_cycle;Signal;HPM_P1;HPM_P2
2021/05/20 00:00:44;;;;;;;7.17;5.85;;;;;;;14.65;80.63;99392.97;1706715;83;21284;-61
2021/05/20 00:03:49;;;;;;;7.53;5.78;;;;;;;14.67;80.50;99395.80;1706697;84;21251;-61
2021/05/20 00:06:55;;;;;;;10.38;5.55;;;;;;;14.72;80.39;99397.34;1674438;85;21228;-61
2021/05/20 00:10:03;;;;;;;6.53;5.00;;;;;;;14.75;80.24;99401.55;1706777;83;21232;-61
2021/05/20 00:13:09;;;;;;;7.35;5.30;;;;;;;14.75;80.17;99402.40;1674323;85;21228;-61
2021/05/20 00:16:16;;;;;;;6.55;5.37;;;;;;;14.77;79.99;99403.02;1706938;83;21233;-61
2021/05/20 00:19:22;;;;;;;5.58;4.90;;;;;;;14.75;79.92;99401.02;1674370;85;21249;-61
2021/05/20 00:22:29;;;;;;;8.00;5.35;;;;;;;14.74;79.94;99403.48;1707190;83;21216;-60
2021/05/20 00:25:34;;;;;;;6.92;4.85;;;;;;;14.75;79.89;99400.17;1674444;85;21248;-60
2021/05/20 00:28:44;;;;;;;6.53;5.20;;;;;;;14.74;79.93;99399.87;1706590;83;21779;-60
2021/05/20 00:31:53;;;;;;;9.28;4.87;;;;;;;14.73;80.04;99397.64;1706847;83;21292;-61
2021/05/20 00:34:59;;;;;;;8.70;5.78;;;;;;;14.74;80.17;99404.86;1673643;85;21272;-61
2021/05/20 00:38:04;;;;;;;7.33;5.35;;;;;;;14.75;80.25;99407.91;1707572;83;21224;-62
2021/05/20 00:41:09;;;;;;;6.30;5.10;;;;;;;14.76;80.43;99401.88;1674593;85;21253;-61
2021/05/20 00:44:16;;;;;;;6.03;5.42;;;;;;;14.77;80.57;99406.30;1706585;83;21239;-61
2021/05/20 00:47:29;;;;;;;8.68;6.28;;;;;;;14.78;80.69;99397.81;1674495;85;21216;-60
2021/05/20 00:50:35;;;;;;;6.92;5.90;;;;;;;14.80;80.82;99399.81;1706796;83;21248;-61
2021/05/20 00:53:42;;;;;;;6.22;5.62;;;;;;;14.82;80.90;99393.55;1674344;85;21224;-62
2021/05/20 00:56:49;;;;;;;6.87;5.75;;;;;;;14.82;80.99;99401.81;1706774;83;21221;-62
2021/05/20 00:59:59;;;;;;;5.70;5.10;;;;;;;14.83;81.12;99398.50;1674543;85;21239;-59
2021/05/20 01:03:05;;;;;;;4.87;4.37;;;;;;;14.85;81.20;99407.39;1706959;83;21315;-61
2021/05/20 01:06:11;;;;;;;11.10;4.70;;;;;;;14.84;81.24;99402.41;1706634;84;21771;-59
2021/05/20 01:09:19;;;;;;;5.10;4.40;;;;;;;14.87;81.23;99401.13;1674309;85;21287;-61
2021/05/20 01:12:25;;;;;;;6.25;4.15;;;;;;;14.92;81.17;99402.67;1706645;83;21224;-62
2021/05/20 01:15:36;;;;;;;5.58;4.60;;;;;;;14.96;81.23;99409.40;1707018;83;21295;-62
2021/05/20 01:18:41;;;;;;;5.92;4.17;;;;;;;15.02;81.20;99408.48;1674398;85;21686;-63
2021/05/20 01:21:49;;;;;;;5.22;4.35;;;;;;;15.03;81.25;99404.67;1707163;83;21594;-60
2021/05/20 01:24:55;;;;;;;5.22;4.72;;;;;;;15.07;81.29;99411.40;1674462;85;21236;-61
2021/05/20 01:28:04;;;;;;;5.62;4.70;;;;;;;15.09;81.32;99407.89;1708098;83;21279;-60
2021/05/20 01:31:10;;;;;;;4.60;3.90;;;;;;;15.10;81.31;99413.70;1674427;85;21236;-61
2021/05/20 01:34:15;;;;;;;4.25;3.33;;;;;;;15.08;81.27;99402.61;1707239;83;21228;-63
2021/05/20 01:37:22;;;;;;;3.37;2.80;;;;;;;15.06;81.16;99406.97;1674227;85;21379;-61
2021/05/20 01:40:29;;;;;;;6.58;3.02;;;;;;;15.04;81.04;99409.11;1674295;85;21419;-61
2021/05/20 01:43:36;;;;;;;3.05;2.75;;;;;;;15.02;81.03;99413.99;1674290;85;21363;-60
2021/05/20 01:46:42;;;;;;;3.10;2.55;;;;;;;14.99;81.07;99414.45;1674198;85;21244;-61
2021/05/20 01:49:49;;;;;;;4.50;2.80;;;;;;;14.97;81.10;99412.45;1674293;85;21386;-60
2021/05/20 01:52:55;;;;;;;2.58;2.08;;;;;;;14.97;81.14;99406.94;1674174;85;21224;-61
2021/05/20 01:56:00;;;;;;;2.22;1.90;;;;;;;14.97;81.16;99406.94;1674396;85;21875;-60
2021/05/20 01:59:07;;;;;;;2.27;1.57;;;;;;;14.96;81.16;99413.01;1674108;85;21947;-59
2021/05/20 02:02:14;;;;;;;1.55;1.27;;;;;;;14.97;81.01;99420.72;1674328;85;21744;-60
2021/05/20 02:05:21;;;;;;;1.95;1.07;;;;;;;14.95;80.89;99417.38;1674276;85;21975;-60
2021/05/20 02:08:28;;;;;;;1.22;1.10;;;;;;;14.91;80.71;99414.74;1674368;85;21233;-61
2021/05/20 02:11:35;;;;;;;1.17;1.02;;;;;;;14.87;80.57;99421.23;1674421;85;21224;-62
2021/05/20 02:14:42;;;;;;;1.70;1.00;;;;;;;14.86;80.38;99425.59;1674330;85;21887;-59
2021/05/20 02:17:41;;;;;;;1.37;1.15;;;;;;;14.82;80.29;99425.76;1674287;85;21647;-60
2021/05/20 02:20:48;;;;;;;1.47;1.17;;;;;;;14.80;80.30;99425.13;1674480;85;21351;-62
2021/05/20 02:23:52;;;;;;;1.32;1.10;;;;;;;14.83;80.29;99425.53;1674222;85;21698;-60
2021/05/20 02:26:59;;;;;;;2.37;0.90;;;;;;;14.82;80.13;99428.52;1674350;85;21399;-62
2021/05/20 02:30:05;;;;;;;1.80;1.12;;;;;;;14.79;80.13;99429.80;1674358;85;21300;-61
2021/05/20 02:33:12;;;;;;;2.08;0.70;;;;;;;14.80;80.16;99423.76;1674287;85;21781;-59
2021/05/20 02:36:17;;;;;;;1.37;1.10;;;;;;;14.82;80.21;99427.98;1674224;82;21844;-60
2021/05/20 02:39:23;;;;;;;1.10;1.00;;;;;;;14.84;80.17;99428.58;1674375;85;21351;-60
2021/05/20 02:42:30;;;;;;;1.32;0.90;;;;;;;14.84;80.11;99426.38;1674281;85;21395;-60
2021/05/20 02:45:35;;;;;;;1.32;1.00;;;;;;;14.83;80.08;99424.16;1674258;85;21417;-60
2021/05/20 02:48:40;;;;;;;1.55;1.00;;;;;;;14.83;80.06;99424.67;1674397;85;21292;-60
2021/05/20 02:51:46;;;;;;;1.05;0.90;;;;;;;14.83;79.96;99431.56;1674301;85;21367;-60
2021/05/20 02:54:52;;;;;;;1.00;0.90;;;;;;;14.82;79.97;99423.00;1674310;85;21432;-61
2021/05/20 02:58:01;;;;;;;1.35;1.10;;;;;;;14.84;80.00;99429.14;1674294;85;21281;-59
2021/05/20 03:01:07;;;;;;;1.70;1.10;;;;;;;14.89;80.00;99432.88;1674337;85;21422;-61
2021/05/20 03:04:15;;;;;;;3.55;1.40;;;;;;;14.90;79.90;99437.87;1674357;85;21209;-58
2021/05/20 03:07:20;;;;;;;2.80;1.10;;;;;;;14.93;79.91;99430.52;1674321;85;21674;-61
2021/05/20 03:10:29;;;;;;;2.65;1.15;;;;;;;14.96;79.76;99441.09;1674329;85;21446;-61
2021/05/20 03:13:34;;;;;;;1.98;1.05;;;;;;;14.99;79.70;99437.36;1674355;85;21314;-60
2021/05/20 03:16:41;;;;;;;1.10;0.90;;;;;;;15.00;79.61;99436.80;1674358;85;21252;-61
2021/05/20 03:19:49;;;;;;;0.70;0.70;;;;;;;15.00;79.54;99440.93;1674266;85;21390;-61
2021/05/20 03:22:54;;;;;;;0.93;0.65;;;;;;;15.03;79.52;99439.66;1674299;85;21856;-62
2021/05/20 03:26:00;;;;;;;1.05;0.60;;;;;;;15.05;79.51;99443.85;1674247;85;22078;-62
2021/05/20 03:29:07;;;;;;;2.35;0.60;;;;;;;15.10;79.37;99442.64;1674249;85;21390;-60
2021/05/20 03:32:14;;;;;;;1.10;0.70;;;;;;;15.15;79.19;99451.60;1674260;85;21443;-60
2021/05/20 03:35:21;;;;;;;3.20;0.80;;;;;;;15.19;79.08;99442.64;1674247;85;21410;-61
2021/05/20 03:38:28;;;;;;;1.72;0.90;;;;;;;15.21;78.76;99454.30;1674742;84;21375;-59
2021/05/20 03:41:37;;;;;;;1.37;0.60;;;;;;;15.20;78.61;99438.83;1674665;85;21371;-60
2021/05/20 03:44:46;;;;;;;2.85;0.78;;;;;;;15.24;78.68;99435.91;1674681;85;21267;-61
2021/05/20 03:47:54;;;;;;;1.60;1.20;;;;;;;15.27;78.47;99441.52;1674864;85;21240;-59
2021/05/20 03:51:01;;;;;;;1.75;1.10;;;;;;;15.27;78.26;99441.52;1674854;85;21434;-59
2021/05/20 03:54:07;;;;;;;1.77;0.90;;;;;;;15.33;78.25;99442.83;1674813;85;21454;-61
2021/05/20 03:57:13;;;;;;;2.67;0.85;;;;;;;15.36;78.05;99443.75;1674716;85;21205;-60
2021/05/20 04:00:21;;;;;;;1.72;1.07;;;;;;;15.42;77.83;99442.01;1675147;85;21254;-61
2021/05/20 04:03:33;;;;;;;1.82;0.90;;;;;;;15.46;77.70;99448.20;1674677;85;21300;-59
2021/05/20 04:06:39;;;;;;;1.10;1.00;;;;;;;15.42;77.61;99455.80;1674607;85;21213;-58
2021/05/20 04:09:45;;;;;;;2.25;1.42;;;;;;;15.35;77.71;99455.84;1674380;85;21386;-60
2021/05/20 04:12:52;;;;;;;1.60;1.30;;;;;;;15.23;77.65;99465.95;1674668;85;21371;-62
2021/05/20 04:16:01;;;;;;;2.42;1.30;;;;;;;15.16;78.11;99469.30;1674710;85;21415;-61
2021/05/20 04:19:06;;;;;;;1.27;1.17;;;;;;;15.16;78.40;99472.05;1674412;85;21789;-59
2021/05/20 04:22:13;;;;;;;1.67;1.30;;;;;;;15.23;78.45;99465.09;1675036;85;21224;-59
2021/05/20 04:25:21;;;;;;;1.12;1.02;;;;;;;15.27;78.28;99472.67;1674679;85;21410;-61
2021/05/20 04:28:27;;;;;;;1.85;1.60;;;;;;;15.28;77.98;99466.64;1674625;85;21252;-60
2021/05/20 04:31:34;;;;;;;3.33;1.12;;;;;;;15.27;77.97;99469.09;1674746;85;21212;-60
2021/05/20 04:34:40;;;;;;;1.22;1.10;;;;;;;15.29;77.91;99481.57;1674309;85;21252;-60
2021/05/20 04:37:45;;;;;;;2.37;1.40;;;;;;;15.35;77.85;99487.55;1679383;84;21221;-59
2021/05/20 04:40:51;;;;;;;1.27;1.00;;;;;;;15.41;77.75;99485.84;1625759;87;21259;-61
2021/05/20 04:43:56;;;;;;;1.90;0.80;;;;;;;15.37;78.00;99488.17;1631749;87;21248;-57
2021/05/20 04:47:03;;;;;;;1.62;0.90;;;;;;;15.29;78.02;99491.22;1629856;88;21256;-56
2021/05/20 04:50:09;;;;;;;1.17;1.05;;;;;;;15.23;78.37;99493.52;1603006;87;21818;-61
2021/05/20 04:53:15;;;;;;;1.55;1.00;;;;;;;15.22;78.85;99502.02;1627107;87;21223;-59
2021/05/20 04:56:26;;;;;;;1.60;1.20;;;;;;;15.16;79.12;99501.00;1671871;85;21779;-61
2021/05/20 04:59:30;;;;;;;1.00;0.85;;;;;;;15.12;79.45;99501.16;1686557;85;21389;-58
2021/05/20 05:02:35;;;;;;;4.60;2.75;;;;;;;15.07;79.58;99510.63;1684915;83;21537;-58
2021/05/20 05:05:42;;;;;;;2.40;1.15;;;;;;;15.07;79.79;99511.16;1683313;84;21278;-56
2021/05/20 05:08:48;;;;;;;1.52;1.00;;;;;;;15.06;79.72;99515.85;1633056;86;21279;-57
2021/05/20 05:11:56;;;;;;;1.87;1.10;;;;;;;15.03;79.75;99519.88;1688491;85;21244;-57
2021/05/20 05:15:02;;;;;;;1.10;0.80;;;;;;;14.95;79.79;99517.97;1693741;83;21271;-58
2021/05/20 05:18:07;;;;;;;1.57;1.00;;;;;;;14.92;80.14;99515.66;1690006;84;21216;-57
2021/05/20 05:21:12;;;;;;;2.83;1.25;;;;;;;14.95;80.32;99516.03;1686793;85;21214;-59
2021/05/20 05:24:22;;;;;;;2.25;1.22;;;;;;;15.00;80.44;99517.58;1689761;84;21306;-58
2021/05/20 05:27:29;;;;;;;3.17;1.80;;;;;;;15.01;80.24;99529.45;1657377;85;21371;-58
2021/05/20 05:30:35;;;;;;;3.15;1.70;;;;;;;15.06;80.27;99522.74;1690121;85;21456;-58
2021/05/20 05:33:41;;;;;;;2.98;1.15;;;;;;;15.18;80.57;99528.34;1690295;84;21436;-59
2021/05/20 05:36:48;;;;;;;1.57;1.00;;;;;;;15.36;80.19;99529.77;1656255;86;21403;-58
2021/05/20 05:39:54;;;;;;;3.72;1.10;;;;;;;15.45;79.83;99524.29;1687085;82;21252;-59
2021/05/20 05:43:03;;;;;;;1.72;0.72;;;;;;;15.55;79.72;99515.81;1656723;85;21652;-59
2021/05/20 05:46:08;;;;;;;1.92;1.15;;;;;;;15.53;78.77;99530.36;1690327;85;21401;-57
2021/05/20 05:49:29;;;;;;;2.27;1.00;;;;;;;15.52;78.77;99540.25;1690027;84;21266;-56
2021/05/20 05:52:33;;;;;;;2.40;1.12;;;;;;;15.51;78.64;99547.67;1653769;85;21359;-58
2021/05/20 05:55:38;;;;;;;1.75;0.98;;;;;;;15.51;78.91;99550.43;1656618;86;21390;-56
2021/05/20 05:58:44;;;;;;;1.30;0.93;;;;;;;15.49;78.51;99547.05;1656664;86;21197;-55
2021/05/20 06:01:50;;;;;;;1.10;0.90;;;;;;;15.44;78.16;99553.81;1675440;85;21408;-55
2021/05/20 06:04:58;;;;;;;3.90;1.80;;;;;;;15.38;78.05;99559.35;1669974;85;21249;-54
2021/05/20 06:08:05;;;;;;;3.10;1.22;;;;;;;15.32;78.28;99557.50;1690560;85;21227;-53
2021/05/20 06:11:10;;;;;;;1.95;1.20;;;;;;;15.21;78.10;99565.95;1657684;85;21379;-55
2021/05/20 06:14:16;;;;;;;2.30;1.00;;;;;;;15.09;78.40;99566.39;1683213;84;21401;-56
2021/05/20 06:17:23;;;;;;;1.42;1.10;;;;;;;14.97;78.66;99566.27;1619638;87;21210;-58
2021/05/20 06:20:30;;;;;;;1.98;1.20;;;;;;;14.88;79.00;99568.14;1681370;84;21196;-58
2021/05/20 06:23:35;;;;;;;4.00;1.30;;;;;;;14.86;79.40;99567.52;1678121;85;21337;-58
2021/05/20 06:26:41;;;;;;;5.10;1.82;;;;;;;14.87;79.95;99570.59;1678813;84;21377;-60
2021/05/20 06:29:47;;;;;;;4.45;2.12;;;;;;;14.86;80.16;99577.16;1679500;84;21334;-60
2021/05/20 06:32:52;;;;;;;2.83;1.60;;;;;;;14.85;80.45;99569.97;1678899;84;21275;-59
2021/05/20 06:35:59;;;;;;;2.37;1.55;;;;;;;14.82;80.78;99578.68;1690831;83;21898;-56
2021/05/20 06:39:08;;;;;;;2.60;1.57;;;;;;;14.82;81.16;99591.94;1691363;83;21353;-60
2021/05/20 06:42:18;;;;;;;2.30;1.70;;;;;;;14.80;81.18;99582.19;1689354;82;21775;-59
2021/05/20 06:45:23;;;;;;;3.52;1.50;;;;;;;14.85;81.46;99585.12;1684198;84;21232;-61
2021/05/20 06:48:29;;;;;;;3.30;1.70;;;;;;;14.91;81.35;99589.73;1683326;85;21362;-59
2021/05/20 06:51:35;;;;;;;2.83;1.37;;;;;;;14.90;80.96;99601.28;1683058;84;21763;-58
2021/05/20 06:54:41;;;;;;;3.58;1.65;;;;;;;15.04;80.84;99600.67;1679426;85;21251;-59
2021/05/20 07:01:10;;;;;;;9.10;4.75;;;;;;;15.29;79.80;99615.31;1683227;85;21469;-59
2021/05/20 07:04:16;;;;;;;11.28;5.62;;;;;;;15.35;79.37;99613.03;1658779;85;21255;-62
2021/05/20 07:07:23;;;;;;;10.55;5.53;;;;;;;15.37;79.23;99613.66;1684076;83;21259;-61
2021/05/20 07:10:29;;;;;;;7.80;4.20;;;;;;;15.45;79.02;99609.27;1659008;86;21323;-60
2021/05/20 07:13:35;;;;;;;5.75;2.95;;;;;;;15.54;78.77;99613.42;1659182;86;21352;-60
2021/05/20 07:16:39;;;;;;;3.77;2.80;;;;;;;15.66;78.19;99617.14;1658581;86;21255;-60
2021/05/20 07:19:46;;;;;;;6.67;3.45;;;;;;;15.71;77.27;99620.59;1682609;85;21744;-58
2021/05/20 07:22:51;;;;;;;6.72;2.90;;;;;;;15.72;77.08;99619.52;1682164;84;21578;-58
2021/05/20 07:25:56;;;;;;;5.25;2.70;;;;;;;15.73;76.65;99626.74;1659047;85;21248;-57
2021/05/20 07:29:03;;;;;;;3.58;2.10;;;;;;;15.68;76.07;99641.19;1658997;86;21263;-56
2021/05/20 07:32:15;;;;;;;3.85;2.60;;;;;;;15.69;75.63;99634.63;1659109;86;21259;-57
2021/05/20 07:35:18;;;;;;;5.22;2.42;;;;;;;15.69;74.86;99644.28;1659041;86;21298;-57
2021/05/20 07:38:23;;;;;;;4.08;2.15;;;;;;;15.69;74.37;99636.00;1659803;86;21353;-56
2021/05/20 07:41:30;;;;;;;2.35;1.98;;;;;;;15.70;74.14;99635.45;1683916;84;21235;-53
2021/05/20 07:44:38;;;;;;;2.95;2.12;;;;;;;15.76;73.54;99627.10;1709712;84;21267;-53
2021/05/20 07:47:50;;;;;;;3.25;2.42;;;;;;;15.87;73.16;99638.77;1710603;84;21227;-54
2021/05/20 07:50:53;;;;;;;5.20;2.67;;;;;;;16.01;72.78;99640.35;1658936;86;21264;-55
2021/05/20 07:53:58;;;;;;;6.10;2.50;;;;;;;16.16;72.69;99646.85;1657466;86;21219;-55
2021/05/20 07:57:04;;;;;;;4.17;2.25;;;;;;;16.26;72.60;99658.22;1633878;88;21851;-55
2021/05/20 08:00:12;;;;;;;3.20;2.35;;;;;;;16.34;71.40;99658.77;1665066;84;21384;-54
2021/05/20 08:03:30;;;;;;;5.33;2.72;;;;;;;16.41;70.15;99661.45;1630816;86;21246;-54
2021/05/20 08:06:53;;;;;;;4.45;2.47;;;;;;;16.43;70.02;99662.05;1653402;86;21752;-55
2021/05/20 08:10:37;;;;;;;;;;;;;;;;;;;;;
2021/05/20 08:12:58;;;;;;;5.28;2.12;;;;;;;16.34;69.31;99673.96;1632795;86;21323;-54
2021/05/20 08:16:05;;;;;;;3.77;2.05;;;;;;;16.29;69.07;99675.19;1630500;88;21466;-53
2021/05/20 08:19:10;;;;;;;4.75;2.40;;;;;;;16.28;69.00;99684.52;1651414;86;21296;-54
2021/05/20 08:22:16;;;;;;;3.27;2.10;;;;;;;16.26;68.98;99686.69;1700477;83;21220;-54
2021/05/20 08:25:23;;;;;;;4.22;1.87;;;;;;;16.27;68.68;99688.37;1658306;86;21224;-52
2021/05/20 08:28:28;;;;;;;3.15;2.08;;;;;;;16.34;69.12;99686.39;1700718;84;21236;-51
2021/05/20 08:31:34;;;;;;;5.22;1.90;;;;;;;16.44;69.29;99688.09;1703554;83;21765;-58
2021/05/20 08:34:41;;;;;;;2.92;2.20;;;;;;;16.53;69.12;99690.02;1699291;83;21832;-60
2021/05/20 08:37:48;;;;;;;3.35;2.05;;;;;;;16.52;68.06;99688.34;1709668;84;21287;-60
2021/05/20 08:40:53;;;;;;;2.58;2.22;;;;;;;16.61;68.15;99691.09;1709022;84;21804;-60
2021/05/20 08:44:00;;;;;;;3.08;2.20;;;;;;;16.78;68.36;99697.67;1706161;84;21229;-57
2021/05/20 08:47:09;;;;;;;3.30;2.45;;;;;;;16.93;67.13;99698.65;1665468;86;21184;-58
2021/05/20 08:50:15;;;;;;;3.67;2.50;;;;;;;16.97;66.92;99698.47;1704682;84;21272;-57
2021/05/20 08:53:21;;;;;;;4.50;2.00;;;;;;;17.00;66.74;99691.13;1705351;84;21401;-57
2021/05/20 08:56:30;;;;;;;5.17;2.83;;;;;;;16.99;66.61;99701.86;1705099;84;21202;-58
2021/05/20 08:59:34;;;;;;;5.55;2.98;;;;;;;17.00;66.54;99703.00;1704312;84;21323;-58
2021/05/20 09:02:47;;;;;;;5.58;2.20;;;;;;;16.97;66.44;99707.62;1653150;85;21216;-59
2021/05/20 09:05:53;;;;;;;3.42;2.10;;;;;;;16.91;66.16;99711.85;1654605;85;21489;-60
2021/05/20 09:09:00;;;;;;;9.98;3.17;;;;;;;16.76;66.05;99718.34;1635353;87;21303;-61
2021/05/20 09:12:07;;;;;;;7.35;2.52;;;;;;;16.62;66.18;99723.73;1641773;86;21227;-62
2021/05/20 09:15:23;;;;;;;9.05;3.47;;;;;;;16.54;66.76;99733.70;1676463;85;21401;-63
2021/05/20 09:18:31;;;;;;;3.87;1.77;;;;;;;16.50;67.19;99740.22;1664643;84;21218;-63
2021/05/20 09:21:35;;;;;;;3.33;1.57;;;;;;;16.47;67.23;99737.92;1663488;86;21915;-66
2021/05/20 09:25:01;;;;;;;2.05;1.42;;;;;;;16.47;67.14;99737.92;1676938;84;21262;-62
2021/05/20 09:28:06;;;;;;;18.90;7.40;;;;;;;16.43;66.28;99741.64;1672848;86;21210;-67
2021/05/20 09:31:16;;;;;;;23.87;8.63;;;;;;;16.53;66.01;99752.72;1644917;87;21478;-58
2021/05/20 09:34:27;;;;;;;2.37;1.30;;;;;;;16.65;65.93;99756.42;1674610;84;21936;-61
2021/05/20 09:37:36;;;;;;;2.20;1.67;;;;;;;16.80;64.67;99750.81;1653044;86;21271;-60
2021/05/20 09:40:45;;;;;;;5.80;1.50;;;;;;;16.97;63.94;99760.69;1640424;86;21737;-58
2021/05/20 09:43:52;;;;;;;4.90;2.98;;;;;;;17.09;63.24;99767.14;1660881;85;21208;-61
2021/05/20 09:46:58;;;;;;;2.27;1.40;;;;;;;17.14;62.50;99772.83;1659927;85;21706;-58
2021/05/20 09:50:19;;;;;;;7.37;3.70;;;;;;;17.14;62.84;99770.06;1687114;82;21241;-62
2021/05/20 09:53:28;;;;;;;3.90;1.92;;;;;;;17.15;62.32;99777.27;1653808;84;21331;-60
2021/05/20 09:56:48;;;;;;;3.25;1.45;;;;;;;17.10;62.56;99773.83;1630710;87;21222;-58
2021/05/20 10:00:11;;;;;;;1.70;1.20;;;;;;;17.04;62.70;99774.77;1683635;82;21770;-58
2021/05/20 10:03:21;;;;;;;1.70;1.10;;;;;;;17.12;63.11;99765.30;1687937;83;21213;-59
2021/05/20 10:06:48;;;;;;;2.52;1.37;;;;;;;17.39;62.34;99774.92;1697913;84;21210;-59
2021/05/20 10:09:54;;;;;;;1.65;1.00;;;;;;;17.39;62.34;99774.92;1638434;86;21252;-60
2021/05/20 10:12:58;;;;;;;3.80;2.27;;;;;;;17.51;62.86;99778.07;1670135;84;21899;-60
2021/05/20 10:16:04;;;;;;;6.87;2.90;;;;;;;17.67;62.17;99774.64;1666890;84;21378;-60
2021/05/20 10:19:10;;;;;;;3.25;1.47;;;;;;;17.97;61.96;99780.11;1667108;84;21259;-59
2021/05/20 10:22:15;;;;;;;2.10;1.80;;;;;;;18.22;61.20;99780.74;1669739;84;21204;-60
2021/05/20 10:25:21;;;;;;;1.60;1.20;;;;;;;18.28;60.65;99780.34;1667338;84;21270;-57
2021/05/20 10:28:28;;;;;;;1.25;1.00;;;;;;;18.42;59.98;99782.67;1667129;84;21176;-62
2021/05/20 10:31:33;;;;;;;2.70;1.00;;;;;;;18.59;58.27;99774.45;1705737;82;21231;-59
2021/05/20 10:34:40;;;;;;;1.90;1.40;;;;;;;18.73;57.90;99781.42;1675989;84;21659;-59
2021/05/20 10:37:46;;;;;;;4.40;1.60;;;;;;;18.82;56.33;99786.92;1674266;85;21186;-59
2021/05/20 10:40:52;;;;;;;4.90;3.42;;;;;;;18.80;56.04;99784.39;1707237;83;21299;-61
2021/05/20 10:44:14;;;;;;;4.03;2.45;;;;;;;18.81;55.82;99797.16;1665340;83;21251;-59
2021/05/20 10:47:20;;;;;;;2.12;1.35;;;;;;;18.82;55.91;99792.47;1675861;83;21634;-62
2021/05/20 10:50:25;;;;;;;2.65;1.37;;;;;;;18.92;55.33;99794.91;1690320;84;21556;-58
2021/05/20 10:53:50;;;;;;;3.83;1.80;;;;;;;19.01;54.95;99787.06;1647036;86;21259;-59
2021/05/20 10:56:57;;;;;;;2.37;1.22;;;;;;;19.05;54.57;99792.41;1636986;84;21882;-58
2021/05/20 11:00:02;;;;;;;3.92;2.10;;;;;;;19.09;54.79;99790.84;1673638;84;21623;-58
2021/05/20 11:03:07;;;;;;;2.27;1.45;;;;;;;19.13;54.58;99791.50;1687944;84;21843;-58
2021/05/20 11:06:13;;;;;;;3.83;1.70;;;;;;;19.13;54.36;99799.82;1689376;85;21795;-58
2021/05/20 11:09:25;;;;;;;4.53;1.67;;;;;;;19.00;54.08;99806.16;1690874;85;21286;-61
2021/05/20 11:12:31;;;;;;;;;;;;;;;18.82;54.59;99805.77;1693479;84;21211;-60
2021/05/20 11:15:35;;;;;;;6.33;1.80;;;;;;;18.58;55.18;99802.74;1689079;82;20238;-59
2021/05/20 11:18:42;;;;;;;2.92;1.62;;;;;;;18.40;56.46;99811.16;1677288;85;21564;-60
2021/05/20 11:22:09;;;;;;;2.42;2.05;;;;;;;18.39;56.75;99805.33;1664841;83;21210;-59
2021/05/20 11:25:21;;;;;;;7.17;2.58;;;;;;;18.47;56.58;99806.89;1691337;84;21290;-58
2021/05/20 11:28:26;;;;;;;4.10;1.32;;;;;;;18.67;56.53;99815.67;1692506;85;21210;-59
2021/05/20 11:31:34;;;;;;;2.30;1.20;;;;;;;18.88;56.27;99813.67;1689504;84;21203;-60
2021/05/20 11:37:45;;;;;;;3.22;1.37;;;;;;;18.86;54.39;99820.86;1690366;84;21254;-60
2021/05/20 11:40:50;;;;;;;4.35;1.77;;;;;;;18.81;55.06;99822.12;1692724;84;21237;-60
2021/05/20 11:44:07;;;;;;;2.77;1.40;;;;;;;18.79;55.71;99833.98;1691997;85;21214;-59
2021/05/20 11:47:15;;;;;;;1.30;1.10;;;;;;;18.73;55.76;99836.35;1677817;79;21279;-59
2021/05/20 11:50:23;;;;;;;2.10;1.60;;;;;;;18.60;55.38;99835.77;1701058;84;21227;-57
2021/05/20 11:53:29;;;;;;;1.92;1.37;;;;;;;18.48;55.22;99840.44;1710261;84;21748;-59
2021/05/20 11:56:48;;;;;;;2.80;1.47;;;;;;;18.38;55.45;99840.19;1701660;84;21227;-58
2021/05/20 12:00:00;;;;;;;1.90;1.40;;;;;;;18.37;55.72;99837.94;1695096;84;21905;-61
2021/05/20 12:03:07;;;;;;;4.33;2.37;;;;;;;18.50;55.98;99846.06;1657182;85;21788;-61
2021/05/20 12:06:14;;;;;;;6.25;2.90;;;;;;;18.64;55.88;99836.42;1671249;84;21809;-60
2021/05/20 12:09:20;;;;;;;3.10;1.77;;;;;;;18.80;56.00;99844.02;1662806;84;21193;-59
2021/05/20 12:12:27;;;;;;;3.27;1.47;;;;;;;18.92;55.44;99835.67;1641580;86;21240;-62
2021/05/20 12:15:35;;;;;;;2.35;1.80;;;;;;;19.00;54.92;99840.31;1698697;83;21264;-63
2021/05/20 12:18:48;;;;;;;1.80;1.17;;;;;;;19.02;54.33;99838.14;1694364;83;21189;-63
2021/05/20 12:22:11;;;;;;;3.00;1.20;;;;;;;18.97;54.19;99835.25;1660737;85;21240;-63
2021/05/20 12:25:20;;;;;;;4.55;1.22;;;;;;;18.96;54.68;99838.27;1647852;86;21303;-61
2021/05/20 12:28:28;;;;;;;5.05;1.90;;;;;;;18.95;54.32;99840.19;1642837;87;21269;-61
2021/05/20 12:31:34;;;;;;;3.87;1.50;;;;;;;18.95;54.69;99836.56;1649919;86;21225;-60
2021/05/20 12:34:39;;;;;;;3.20;1.52;;;;;;;19.02;54.73;99838.68;1663919;85;21219;-59
2021/05/20 12:38:12;;;;;;;2.72;1.27;;;;;;;19.09;54.02;99841.61;1674028;85;21342;-63
2021/05/20 12:41:17;;;;;;;4.22;1.20;;;;;;;19.19;54.03;99848.78;1701415;83;21417;-58
2021/05/20 12:44:24;;;;;;;2.15;1.20;;;;;;;19.31;53.74;99848.23;1698245;82;21362;-60
2021/05/20 12:47:33;;;;;;;4.00;1.25;;;;;;;19.45;53.41;99850.20;1704805;83;21686;-64
2021/05/20 12:50:44;;;;;;;3.12;1.10;;;;;;;19.58;53.51;99846.30;1693860;84;21283;-58
2021/05/20 12:54:15;;;;;;;3.12;1.35;;;;;;;19.68;52.71;99848.72;1641548;85;21233;-58
2021/05/20 12:57:25;;;;;;;2.72;1.42;;;;;;;19.71;52.05;99852.95;1671118;84;21305;-60
2021/05/20 13:00:30;;;;;;;7.45;4.45;;;;;;;19.72;52.25;99851.31;1665018;85;21772;-63
2021/05/20 13:03:53;;;;;;;3.00;2.08;;;;;;;19.77;52.07;99853.34;1667096;84;21332;-59
2021/05/20 13:07:15;;;;;;;3.80;1.67;;;;;;;19.79;51.70;99856.72;1641845;86;21207;-61
2021/05/20 13:10:23;;;;;;;3.25;1.90;;;;;;;19.82;51.95;99857.61;1646540;86;21287;-59
2021/05/20 13:13:40;;;;;;;4.72;2.87;;;;;;;19.95;52.22;99858.14;1667195;85;21592;-65
2021/05/20 13:23:43;;;;;;;7.75;3.37;;;;;;;20.07;50.02;99870.05;1700502;83;21358;-57
2021/05/20 13:26:49;;;;;;;13.72;8.20;;;;;;;20.25;49.95;99864.83;1651043;85;21757;-61
2021/05/20 13:30:02;;;;;;;7.58;3.60;;;;;;;20.37;49.57;99871.17;1663769;84;21325;-61
2021/05/20 13:33:10;;;;;;;5.47;3.03;;;;;;;20.31;49.13;99874.39;1641385;84;21236;-58
2021/05/20 13:36:16;;;;;;;5.00;2.92;;;;;;;20.23;48.79;99874.80;1647798;87;21224;-61
2021/05/20 13:39:21;;;;;;;4.22;2.85;;;;;;;20.13;48.92;99870.98;1696529;82;21371;-57
2021/05/20 13:42:28;;;;;;;6.33;2.50;;;;;;;20.07;49.35;99870.59;1647233;87;21507;-60
2021/05/20 13:45:34;;;;;;;6.20;2.35;;;;;;;20.22;48.97;99866.72;1685383;84;21269;-60
2021/05/20 13:48:40;;;;;;;4.80;2.25;;;;;;;20.55;48.50;99863.41;1691128;84;21773;-63
2021/05/20 13:51:49;;;;;;;4.85;2.25;;;;;;;20.93;47.85;99864.00;1658744;85;21256;-61
2021/05/20 13:54:55;;;;;;;4.60;1.82;;;;;;;21.18;47.53;99860.26;1655659;85;21539;-62
2021/05/20 13:58:06;;;;;;;2.90;1.45;;;;;;;21.33;46.72;99863.77;1675451;85;21207;-60
2021/05/20 14:01:13;;;;;;;9.95;7.42;;;;;;;21.55;45.66;99868.25;1644629;87;21229;-59
2021/05/20 14:04:26;;;;;;;8.33;6.08;;;;;;;21.55;46.19;99871.04;1676296;84;21238;-58
2021/05/20 14:07:31;;;;;;;3.30;2.22;;;;;;;21.54;46.15;99860.16;1651457;85;21189;-60
2021/05/20 14:10:36;;;;;;;3.12;1.57;;;;;;;21.50;46.42;99857.62;1641687;87;21237;-58
2021/05/20 14:13:42;;;;;;;7.67;1.70;;;;;;;21.38;45.68;99851.31;1642382;87;21414;-61
2021/05/20 14:16:48;;;;;;;4.42;1.82;;;;;;;21.18;45.48;99871.39;1613090;89;21340;-57
2021/05/20 14:20:01;;;;;;;2.83;1.67;;;;;;;21.26;45.32;99859.81;1643947;86;21414;-56
2021/05/20 14:23:07;;;;;;;5.50;2.00;;;;;;;21.50;44.51;99865.40;1648241;86;21219;-55
2021/05/20 14:26:14;;;;;;;2.45;1.70;;;;;;;21.66;44.68;99861.70;1655307;86;21424;-58
2021/05/20 14:29:21;;;;;;;4.83;2.37;;;;;;;21.78;45.19;99868.03;1648533;85;21275;-58
2021/05/20 14:32:28;;;;;;;6.87;2.25;;;;;;;21.77;45.46;99876.08;1663311;85;21717;-59
2021/05/20 14:35:33;;;;;;;3.65;1.80;;;;;;;21.79;44.98;99881.39;1652124;86;21880;-54
2021/05/20 14:38:39;;;;;;;3.08;1.80;;;;;;;21.93;44.60;99883.52;1654826;86;21341;-56
2021/05/20 14:41:48;;;;;;;2.80;1.67;;;;;;;22.23;44.56;99879.37;1675359;85;21389;-57
2021/05/20 14:44:53;;;;;;;3.00;1.80;;;;;;;22.91;43.74;99883.64;1676233;85;21374;-58
2021/05/20 14:48:00;;;;;;;2.67;1.57;;;;;;;22.77;43.85;99890.22;1668538;86;21243;-57
2021/05/20 14:54:22;;;;;;;3.17;1.57;;;;;;;23.05;42.97;99886.25;1693065;84;21246;-58
2021/05/20 15:07:34;;;;;;;3.87;1.82;;;;;;;23.68;41.79;99879.63;1666146;84;21902;-57
2021/05/20 15:10:53;;;;;;;2.70;1.25;;;;;;;23.68;41.72;99894.45;1684252;85;21237;-58